createdAt,value
2023-01-29T00:04:05.916Z,99420.69
2023-01-29T00:09:28.325Z,99412.52
2023-01-29T00:14:50.274Z,99420.95
2023-01-29T00:20:12.800Z,99428.72
2023-01-29T00:25:34.529Z,99431.92
2023-01-29T00:30:56.686Z,99435.84
2023-01-29T00:36:20.195Z,99436.30
2023-01-29T00:42:01.005Z,99434.34
2023-01-29T00:47:33.796Z,99433.54
2023-01-29T00:52:55.886Z,99441.66
2023-01-29T00:58:22.633Z,99452.41
2023-01-29T01:03:44.610Z,99454.80
2023-01-29T01:09:25.605Z,99461.66
2023-01-29T01:14:48.038Z,99459.85
2023-01-29T01:20:11.350Z,99447.36
2023-01-29T01:25:33.334Z,99440.63
2023-01-29T01:30:55.484Z,99436.36
2023-01-29T01:36:18.490Z,99432.66
2023-01-29T01:41:42.736Z,99441.02
2023-01-29T01:47:04.585Z,99426.55
2023-01-29T01:52:26.292Z,99426.50
2023-01-29T01:57:53.222Z,99416.61
2023-01-29T02:03:34.998Z,99404.82
2023-01-29T02:09:33.253Z,99412.20
2023-01-29T02:14:56.551Z,99410.36
2023-01-29T02:20:24.413Z,99413.63
2023-01-29T02:26:24.134Z,99395.55
2023-01-29T02:31:52.594Z,99383.42
2023-01-29T02:37:15.646Z,99385.77
2023-01-29T02:42:53.033Z,99393.79
2023-01-29T02:48:20.332Z,99396.98
2023-01-29T02:53:46.436Z,99400.47
2023-01-29T02:59:13.282Z,99412.99
2023-01-29T03:04:38.647Z,99411.69
2023-01-29T03:10:02.299Z,99410.49
2023-01-29T03:15:28.825Z,99408.56
2023-01-29T03:21:33.989Z,99422.31
2023-01-29T03:27:15.445Z,99421.96
2023-01-29T03:32:42.826Z,99423.56
2023-01-29T03:38:07.513Z,99423.64
2023-01-29T03:43:42.313Z,99420.61
2023-01-29T03:49:15.490Z,99413.09
2023-01-29T03:55:06.842Z,99409.91
2023-01-29T04:00:39.219Z,99399.91
2023-01-29T04:06:12.040Z,99393.05
2023-01-29T04:11:48.914Z,99394.66
2023-01-29T04:17:17.435Z,99392.14
2023-01-29T04:22:58.532Z,99381.16
2023-01-29T04:28:54.402Z,99377.00
2023-01-29T04:34:28.074Z,99363.19
2023-01-29T04:40:04.797Z,99349.62
2023-01-29T04:45:40.103Z,99348.52
2023-01-29T04:51:25.644Z,99336.30
2023-01-29T04:56:57.710Z,99323.30
2023-01-29T05:02:21.345Z,99327.02
2023-01-29T05:07:45.326Z,99326.52
2023-01-29T05:13:11.286Z,99332.98
2023-01-29T05:18:33.929Z,99332.58
2023-01-29T05:24:15.054Z,99333.92
2023-01-29T05:29:36.698Z,99341.66
2023-01-29T05:34:58.514Z,99344.64
2023-01-29T05:40:20.368Z,99335.88
2023-01-29T05:45:42.816Z,99334.23
2023-01-29T05:51:05.308Z,99337.55
2023-01-29T05:56:27.271Z,99338.55
2023-01-29T06:01:49.502Z,99345.14
2023-01-29T06:07:11.084Z,99349.80
2023-01-29T06:12:33.051Z,99349.67
2023-01-29T06:17:55.674Z,99346.17
2023-01-29T06:23:17.931Z,99345.39
2023-01-29T06:28:39.806Z,99361.02
2023-01-29T06:34:01.564Z,99364.29
2023-01-29T06:39:23.363Z,99367.45
2023-01-29T06:44:49.760Z,99361.63
2023-01-29T06:50:13.218Z,99364.91
2023-01-29T06:55:35.124Z,99369.45
2023-01-29T07:01:08.185Z,99370.46
2023-01-29T07:06:30.481Z,99368.67
2023-01-29T07:11:53.453Z,99376.93
2023-01-29T07:17:16.846Z,99375.86
2023-01-29T07:22:38.696Z,99380.49
2023-01-29T07:28:01.947Z,99380.56
2023-01-29T07:33:23.718Z,99382.14
2023-01-29T07:38:49.651Z,99381.14
2023-01-29T07:44:11.311Z,99390.42
2023-01-29T07:49:33.312Z,99388.11
2023-01-29T07:54:54.937Z,99396.45
2023-01-29T08:00:17.462Z,99416.60
2023-01-29T08:05:39.685Z,99413.99
2023-01-29T08:11:03.418Z,99421.95
2023-01-29T08:16:25.443Z,99420.80
2023-01-29T08:21:50.073Z,99416.63
2023-01-29T08:27:12.196Z,99426.14
2023-01-29T08:32:34.237Z,99437.77
2023-01-29T08:37:59.548Z,99441.96
2023-01-29T08:43:21.312Z,99437.28
2023-01-29T08:48:43.431Z,99438.73
2023-01-29T08:54:07.342Z,99431.98
2023-01-29T08:59:29.205Z,99428.59
2023-01-29T09:04:50.881Z,99416.48
2023-01-29T09:10:13.598Z,99401.77
2023-01-29T09:15:35.527Z,99393.76
2023-01-29T09:20:58.448Z,99387.75
2023-01-29T09:26:20.119Z,99383.81
2023-01-29T09:31:42.122Z,99392.98
2023-01-29T09:37:03.784Z,99397.52
2023-01-29T09:42:42.024Z,99401.37
2023-01-29T09:48:05.885Z,99400.65
2023-01-29T09:53:39.597Z,99395.11
2023-01-29T09:59:02.076Z,99395.28
2023-01-29T10:04:39.191Z,99373.48
2023-01-29T10:10:26.205Z,99364.05
2023-01-29T10:16:03.041Z,99348.17
2023-01-29T10:21:41.984Z,99331.66
2023-01-29T10:27:14.506Z,99314.20
2023-01-29T10:32:37.428Z,99308.96
2023-01-29T10:38:09.206Z,99298.66
2023-01-29T10:43:41.731Z,99282.27
2023-01-29T10:49:25.714Z,99275.02
2023-01-29T10:54:59.865Z,99267.67
2023-01-29T11:00:31.941Z,99262.17
2023-01-29T11:06:05.746Z,99249.72
2023-01-29T11:11:49.346Z,99240.79
2023-01-29T11:17:23.073Z,99222.27
2023-01-29T11:22:53.986Z,99213.38
2023-01-29T11:28:43.375Z,99213.08
2023-01-29T11:34:31.525Z,99208.51
2023-01-29T11:39:53.448Z,99194.52
2023-01-29T11:45:30.045Z,99193.75
2023-01-29T11:50:57.523Z,99200.91
2023-01-29T11:56:23.816Z,99203.49
2023-01-29T12:01:45.866Z,99204.30
2023-01-29T12:07:13.150Z,99191.86
2023-01-29T12:12:40.838Z,99184.16
2023-01-29T12:18:08.605Z,99178.79
2023-01-29T12:23:44.234Z,99178.95
2023-01-29T12:29:17.050Z,99168.21
2023-01-29T12:35:03.565Z,99158.80
2023-01-29T12:40:28.612Z,99154.79
2023-01-29T12:45:53.346Z,99149.08
2023-01-29T12:51:20.894Z,99144.71
2023-01-29T12:56:48.853Z,99142.67
2023-01-29T13:02:23.020Z,99137.38
2023-01-29T13:07:50.249Z,99134.52
2023-01-29T13:13:37.461Z,99126.14
2023-01-29T13:19:02.779Z,99114.39
2023-01-29T13:24:26.063Z,99118.63
2023-01-29T13:29:48.094Z,99117.32
2023-01-29T13:35:14.269Z,99105.76
2023-01-29T13:40:36.201Z,99099.95
2023-01-29T13:45:58.156Z,99089.64
2023-01-29T13:51:22.255Z,99079.81
2023-01-29T13:56:59.399Z,99070.71
2023-01-29T14:02:28.253Z,99077.50
2023-01-29T14:07:53.166Z,99077.28
2023-01-29T14:13:24.066Z,99079.81
2023-01-29T14:18:45.953Z,99074.55
2023-01-29T14:24:22.122Z,99080.88
2023-01-29T14:29:44.164Z,99073.41
2023-01-29T14:35:21.304Z,99075.45
2023-01-29T14:40:46.190Z,99071.32
2023-01-29T14:46:33.280Z,99069.30
2023-01-29T14:51:56.796Z,99067.65
2023-01-29T14:57:19.106Z,99077.70
2023-01-29T15:02:43.643Z,99078.45
2023-01-29T15:08:14.611Z,99077.03
2023-01-29T15:13:57.163Z,99069.41
2023-01-29T15:19:26.004Z,99060.99
2023-01-29T15:25:02.564Z,99062.21
2023-01-29T15:30:31.850Z,99068.28
2023-01-29T15:36:06.720Z,99073.20
2023-01-29T15:41:29.647Z,99060.86
2023-01-29T15:46:57.051Z,99056.70
2023-01-29T15:52:23.156Z,99034.17
2023-01-29T15:57:45.206Z,99031.98
2023-01-29T16:03:15.496Z,99035.23
2023-01-29T16:08:39.552Z,99031.31
2023-01-29T16:14:05.479Z,99027.20
2023-01-29T16:19:28.956Z,99018.28
2023-01-29T16:24:53.295Z,99011.67
2023-01-29T16:30:16.962Z,99012.17
2023-01-29T16:35:40.473Z,99006.75
2023-01-29T16:41:25.980Z,99012.70
2023-01-29T16:46:51.293Z,99019.13
2023-01-29T16:52:19.243Z,99014.80
2023-01-29T16:57:41.580Z,99022.80
2023-01-29T17:03:07.455Z,99022.33
2023-01-29T17:08:33.977Z,99020.97
2023-01-29T17:13:57.159Z,99015.90
2023-01-29T17:19:22.139Z,99010.02
2023-01-29T17:24:44.129Z,99002.27
2023-01-29T17:30:06.880Z,99000.71
2023-01-29T17:35:29.038Z,98991.59
2023-01-29T17:40:53.293Z,98985.86
2023-01-29T17:46:17.553Z,98971.70
2023-01-29T17:51:42.430Z,98970.52
2023-01-29T17:57:04.953Z,98972.73
2023-01-29T18:02:28.904Z,98967.85
2023-01-29T18:07:52.428Z,98971.67
2023-01-29T18:13:14.445Z,98971.11
2023-01-29T18:18:39.387Z,98963.75
2023-01-29T18:24:08.642Z,98961.95
2023-01-29T18:29:30.583Z,98957.04
2023-01-29T18:34:52.400Z,98960.87
2023-01-29T18:40:17.288Z,98959.85
2023-01-29T18:45:39.353Z,98960.68
2023-01-29T18:51:02.909Z,98955.13
2023-01-29T18:56:24.832Z,98956.02
2023-01-29T19:01:47.068Z,98945.08
2023-01-29T19:07:13.513Z,98944.70
2023-01-29T19:12:35.446Z,98933.71
2023-01-29T19:17:57.299Z,98935.58
2023-01-29T19:23:19.884Z,98924.63
2023-01-29T19:28:42.433Z,98927.82
2023-01-29T19:34:06.482Z,98926.61
2023-01-29T19:39:32.792Z,98922.17
2023-01-29T19:44:54.343Z,98933.33
2023-01-29T19:50:17.002Z,98926.27
2023-01-29T19:55:41.212Z,98920.69
2023-01-29T20:01:08.446Z,98916.33
2023-01-29T20:06:31.493Z,98906.54
2023-01-29T20:11:54.023Z,98906.39
2023-01-29T20:17:17.160Z,98903.20
2023-01-29T20:22:41.915Z,98902.08
2023-01-29T20:28:08.044Z,98900.20
2023-01-29T20:33:30.271Z,98910.64
2023-01-29T20:38:53.504Z,98910.52
2023-01-29T20:44:15.239Z,98899.42
2023-01-29T20:49:37.161Z,98894.56
2023-01-29T20:54:59.370Z,98884.73
2023-01-29T21:00:21.722Z,98872.71
2023-01-29T21:05:44.061Z,98859.84
2023-01-29T21:11:07.697Z,98850.31
2023-01-29T21:16:30.075Z,98844.15
2023-01-29T21:21:52.357Z,98831.59
2023-01-29T21:27:13.947Z,98825.98
2023-01-29T21:32:35.808Z,98818.73
2023-01-29T21:37:58.037Z,98811.73
2023-01-29T21:43:19.778Z,98806.59
2023-01-29T21:48:41.703Z,98804.58
2023-01-29T21:54:03.738Z,98804.00
2023-01-29T21:59:25.893Z,98797.66
2023-01-29T22:04:52.447Z,98786.60
2023-01-29T22:10:15.024Z,98778.11
2023-01-29T22:15:37.122Z,98768.34
2023-01-29T22:21:01.081Z,98760.25
2023-01-29T22:26:22.796Z,98751.38
2023-01-29T22:31:44.509Z,98742.05
2023-01-29T22:37:06.464Z,98728.14
2023-01-29T22:42:28.508Z,98716.69
2023-01-29T22:47:50.507Z,98715.91
2023-01-29T22:53:12.504Z,98712.38
2023-01-29T22:58:36.946Z,98706.95
2023-01-29T23:03:59.168Z,98699.11
2023-01-29T23:09:20.911Z,98688.34
2023-01-29T23:14:43.201Z,98682.27
2023-01-29T23:20:05.534Z,98673.33
2023-01-29T23:25:47.585Z,98662.71
2023-01-29T23:31:09.149Z,98643.88
2023-01-29T23:36:31.344Z,98628.77
2023-01-29T23:41:53.195Z,98614.38
2023-01-29T23:47:15.024Z,98604.30
2023-01-29T23:52:36.799Z,98591.27
2023-01-29T23:57:58.614Z,98579.81
